createdAt,value
2023-03-15T00:01:18.634Z,9.94
2023-03-15T00:03:47.415Z,9.89
2023-03-15T00:06:16.144Z,9.85
2023-03-15T00:08:47.542Z,9.79
2023-03-15T00:11:19.069Z,9.78
2023-03-15T00:13:47.263Z,9.76
2023-03-15T00:16:17.644Z,9.76
2023-03-15T00:18:47.263Z,9.73
2023-03-15T00:21:15.925Z,9.78
2023-03-15T00:23:43.240Z,9.76
2023-03-15T00:26:10.909Z,9.79
2023-03-15T00:28:38.751Z,9.82
2023-03-15T00:31:26.483Z,9.86
2023-03-15T00:33:54.262Z,9.86
2023-03-15T00:36:24.821Z,9.85
2023-03-15T00:38:55.484Z,9.87
2023-03-15T00:41:23.587Z,9.87
2023-03-15T00:43:51.934Z,9.87
2023-03-15T00:46:20.026Z,9.90
2023-03-15T00:48:50.440Z,9.94
2023-03-15T00:51:24.284Z,9.97
2023-03-15T00:53:53.969Z,9.99
2023-03-15T00:56:25.333Z,9.97
2023-03-15T00:58:53.684Z,10.00
2023-03-15T01:01:24.688Z,10.00
2023-03-15T01:03:52.430Z,9.96
2023-03-15T01:06:27.618Z,9.96
2023-03-15T01:08:56.746Z,9.93
2023-03-15T01:11:27.953Z,9.93
2023-03-15T01:13:58.641Z,9.89
2023-03-15T01:16:28.215Z,9.87
2023-03-15T01:18:56.112Z,9.80
2023-03-15T01:21:24.495Z,9.75
2023-03-15T01:23:52.873Z,9.73
2023-03-15T01:26:23.006Z,9.72
2023-03-15T01:28:50.931Z,9.66
2023-03-15T01:31:22.550Z,9.68
2023-03-15T01:33:50.193Z,9.70
2023-03-15T01:36:18.524Z,9.69
2023-03-15T01:38:46.543Z,9.65
2023-03-15T01:41:17.654Z,9.65
2023-03-15T01:43:49.070Z,9.70
2023-03-15T01:46:34.449Z,9.79
2023-03-15T01:49:33.869Z,9.89
2023-03-15T01:52:21.291Z,9.85
2023-03-15T01:55:28.811Z,9.82
2023-03-15T01:58:10.690Z,9.79
2023-03-15T02:00:42.053Z,9.82
2023-03-15T02:03:21.735Z,9.89
2023-03-15T02:06:02.135Z,9.91
2023-03-15T02:08:46.838Z,9.93
2023-03-15T02:11:18.992Z,9.91
2023-03-15T02:13:49.775Z,9.93
2023-03-15T02:16:18.970Z,9.96
2023-03-15T02:18:53.101Z,10.01
2023-03-15T02:21:41.076Z,10.03
2023-03-15T02:24:26.225Z,10.01
2023-03-15T02:26:56.732Z,10.01
2023-03-15T02:29:29.102Z,10.03
2023-03-15T02:31:58.336Z,10.03
2023-03-15T02:34:26.463Z,10.03
2023-03-15T02:36:54.821Z,10.04
2023-03-15T02:39:23.353Z,10.04
2023-03-15T02:41:58.226Z,10.01
2023-03-15T02:44:32.404Z,10.01
2023-03-15T02:47:08.195Z,10.06
2023-03-15T02:49:41.493Z,10.07
2023-03-15T02:52:10.712Z,10.14
2023-03-15T02:54:43.318Z,10.18
2023-03-15T02:57:16.016Z,10.21
2023-03-15T02:59:44.683Z,10.16
2023-03-15T03:02:13.648Z,10.18
2023-03-15T03:04:43.148Z,10.17
2023-03-15T03:07:10.816Z,10.20
2023-03-15T03:09:46.075Z,10.22
2023-03-15T03:12:14.837Z,10.20
2023-03-15T03:14:43.445Z,10.24
2023-03-15T03:17:15.515Z,10.24
2023-03-15T03:19:43.943Z,10.20
2023-03-15T03:22:13.891Z,10.17
2023-03-15T03:24:45.880Z,10.16
2023-03-15T03:27:16.192Z,10.13
2023-03-15T03:29:46.234Z,10.08
2023-03-15T03:32:14.480Z,10.08
2023-03-15T03:34:42.412Z,10.10
2023-03-15T03:37:11.048Z,10.06
2023-03-15T03:39:53.194Z,10.07
2023-03-15T03:42:21.406Z,10.04
2023-03-15T03:44:50.353Z,10.03
2023-03-15T03:47:18.472Z,10.03
2023-03-15T03:49:45.949Z,10.04
2023-03-15T03:52:13.372Z,10.06
2023-03-15T03:54:42.648Z,10.03
2023-03-15T03:57:11.514Z,10.03
2023-03-15T03:59:39.713Z,10.06
2023-03-15T04:02:07.422Z,10.07
2023-03-15T04:04:35.824Z,10.10
2023-03-15T04:07:04.527Z,10.13
2023-03-15T04:09:37.658Z,10.17
2023-03-15T04:12:06.584Z,10.17
2023-03-15T04:14:35.475Z,10.18
2023-03-15T04:17:05.630Z,10.17
2023-03-15T04:19:33.569Z,10.16
2023-03-15T04:22:06.832Z,10.18
2023-03-15T04:24:51.012Z,10.18
2023-03-15T04:27:38.612Z,10.18
2023-03-15T04:30:29.664Z,10.17
2023-03-15T04:33:15.400Z,10.20
2023-03-15T04:35:59.992Z,10.17
2023-03-15T04:38:50.989Z,10.16
2023-03-15T04:41:36.842Z,10.06
2023-03-15T04:44:26.621Z,10.00
2023-03-15T04:47:00.387Z,9.96
2023-03-15T04:49:50.839Z,9.89
2023-03-15T04:52:51.215Z,9.83
2023-03-15T04:55:29.096Z,9.82
2023-03-15T04:58:18.156Z,9.79
2023-03-15T05:01:14.450Z,9.72
2023-03-15T05:03:59.678Z,9.69
2023-03-15T05:06:50.627Z,9.69
2023-03-15T05:09:39.730Z,9.63
2023-03-15T05:12:31.427Z,9.62
2023-03-15T05:15:13.601Z,9.59
2023-03-15T05:17:46.445Z,9.58
2023-03-15T05:20:39.912Z,9.55
2023-03-15T05:23:27.554Z,9.56
2023-03-15T05:26:08.277Z,9.55
2023-03-15T05:28:53.887Z,9.55
2023-03-15T05:31:37.202Z,9.53
2023-03-15T05:34:28.479Z,9.59
2023-03-15T05:37:19.044Z,9.56
2023-03-15T05:39:59.900Z,9.59
2023-03-15T05:42:52.978Z,9.56
2023-03-15T05:45:29.352Z,9.59
2023-03-15T05:48:25.950Z,9.59
2023-03-15T05:51:16.460Z,9.60
2023-03-15T05:53:56.191Z,9.63
2023-03-15T05:56:34.717Z,9.65
2023-03-15T05:59:21.091Z,9.68
2023-03-15T06:02:11.883Z,9.72
2023-03-15T06:04:55.180Z,9.73
2023-03-15T06:07:26.124Z,9.76
2023-03-15T06:09:53.881Z,9.78
2023-03-15T06:12:22.173Z,9.73
2023-03-15T06:14:50.145Z,9.75
2023-03-15T06:17:17.660Z,9.79
2023-03-15T06:19:45.732Z,9.75
2023-03-15T06:22:13.714Z,9.58
2023-03-15T06:24:48.242Z,9.45
2023-03-15T06:27:16.081Z,9.42
2023-03-15T06:29:43.471Z,9.28
2023-03-15T06:32:11.077Z,9.22
2023-03-15T06:34:41.422Z,9.22
2023-03-15T06:37:08.896Z,9.20
2023-03-15T06:39:36.372Z,9.21
2023-03-15T06:42:04.953Z,9.17
2023-03-15T06:44:35.507Z,9.17
2023-03-15T06:47:06.334Z,9.15
2023-03-15T06:49:34.596Z,9.14
2023-03-15T06:52:04.511Z,9.20
2023-03-15T06:54:32.250Z,9.22
2023-03-15T06:57:00.728Z,9.20
2023-03-15T06:59:28.104Z,9.20
2023-03-15T07:01:55.529Z,9.17
2023-03-15T07:04:22.857Z,9.20
2023-03-15T07:06:50.650Z,9.20
2023-03-15T07:09:18.286Z,9.17
2023-03-15T07:11:45.715Z,9.14
2023-03-15T07:14:13.156Z,9.08
2023-03-15T07:16:40.978Z,8.96
2023-03-15T07:19:08.329Z,9.00
2023-03-15T07:21:35.871Z,8.99
2023-03-15T07:24:03.479Z,9.04
2023-03-15T07:26:30.934Z,9.04
2023-03-15T07:28:58.374Z,9.05
2023-03-15T07:31:25.704Z,9.07
2023-03-15T07:33:53.241Z,9.12
2023-03-15T07:36:22.319Z,9.20
2023-03-15T07:38:49.891Z,9.36
2023-03-15T07:41:17.526Z,9.48
2023-03-15T07:43:58.457Z,9.51
2023-03-15T07:46:26.201Z,9.49
2023-03-15T07:48:53.606Z,9.63
2023-03-15T07:51:20.958Z,9.79
2023-03-15T07:53:48.400Z,9.75
2023-03-15T07:56:16.059Z,9.73
2023-03-15T07:58:43.583Z,9.68
2023-03-15T08:01:10.910Z,9.45
2023-03-15T08:03:38.267Z,9.59
2023-03-15T08:06:06.080Z,9.60
2023-03-15T08:08:34.087Z,9.66
2023-03-15T08:11:01.723Z,9.69
2023-03-15T08:13:29.100Z,9.65
2023-03-15T08:15:56.490Z,9.52
2023-03-15T08:18:23.944Z,9.45
2023-03-15T08:20:51.579Z,9.25
2023-03-15T08:23:19.187Z,9.03
2023-03-15T08:25:46.595Z,8.94
2023-03-15T08:28:14.667Z,8.74
2023-03-15T08:30:42.268Z,8.73
2023-03-15T08:33:12.641Z,8.76
2023-03-15T08:35:41.479Z,8.76
2023-03-15T08:38:09.918Z,8.66
2023-03-15T08:40:39.836Z,8.53
2023-03-15T08:43:07.444Z,8.42
2023-03-15T08:45:51.129Z,8.32
2023-03-15T08:48:22.102Z,8.29
2023-03-15T08:50:49.529Z,8.25
2023-03-15T08:53:16.850Z,8.25
2023-03-15T08:55:44.400Z,8.07
2023-03-15T08:58:14.413Z,7.98
2023-03-15T09:00:41.955Z,7.93
2023-03-15T09:03:09.338Z,7.81
2023-03-15T09:05:36.933Z,7.83
2023-03-15T09:08:04.758Z,7.81
2023-03-15T09:10:32.205Z,7.71
2023-03-15T09:13:00.652Z,7.65
2023-03-15T09:15:28.254Z,7.69
2023-03-15T09:17:55.701Z,7.65
2023-03-15T09:20:28.279Z,7.62
2023-03-15T09:22:58.326Z,7.53
2023-03-15T09:25:27.188Z,7.47
2023-03-15T09:27:55.107Z,7.43
2023-03-15T09:30:23.138Z,7.47
2023-03-15T09:32:51.570Z,7.52
2023-03-15T09:35:21.352Z,7.46
2023-03-15T09:37:50.941Z,7.43
2023-03-15T09:40:25.303Z,7.43
2023-03-15T09:43:08.849Z,7.32
2023-03-15T09:45:54.030Z,7.35
2023-03-15T09:48:58.188Z,7.28
2023-03-15T09:51:38.798Z,7.28
2023-03-15T09:54:19.136Z,7.15
2023-03-15T09:57:00.305Z,7.12
2023-03-15T09:59:36.251Z,7.04
2023-03-15T10:02:31.143Z,6.97
2023-03-15T10:05:07.790Z,6.95
2023-03-15T10:07:36.258Z,6.91
2023-03-15T10:10:14.856Z,6.84
2023-03-15T10:12:56.655Z,6.94
2023-03-15T10:16:22.615Z,6.97
2023-03-15T10:19:37.269Z,6.99
2023-03-15T10:22:13.758Z,7.08
2023-03-15T10:24:49.350Z,7.11
2023-03-15T10:27:34.972Z,7.08
2023-03-15T10:30:13.326Z,7.04
2023-03-15T10:32:44.751Z,7.01
2023-03-15T10:35:19.757Z,7.02
2023-03-15T10:37:49.220Z,6.90
2023-03-15T10:40:45.465Z,6.87
2023-03-15T10:43:36.330Z,6.84
2023-03-15T10:46:06.675Z,6.80
2023-03-15T10:48:41.281Z,6.71
2023-03-15T10:51:25.527Z,6.61
2023-03-15T10:54:01.125Z,6.58
2023-03-15T10:56:37.407Z,6.54
2023-03-15T10:59:18.423Z,6.43
2023-03-15T11:01:51.126Z,6.32
2023-03-15T11:04:23.630Z,6.15
2023-03-15T11:07:03.074Z,5.92
2023-03-15T11:09:55.403Z,5.88
2023-03-15T11:12:26.046Z,5.81
2023-03-15T11:15:15.826Z,5.79
2023-03-15T11:17:48.469Z,5.73
2023-03-15T11:20:54.590Z,5.55
2023-03-15T11:23:31.737Z,5.48
2023-03-15T11:25:59.520Z,5.42
2023-03-15T11:28:32.082Z,5.26
2023-03-15T11:31:01.406Z,5.19
2023-03-15T11:33:34.398Z,5.09
2023-03-15T11:36:07.639Z,5.05
2023-03-15T11:38:44.264Z,4.96
2023-03-15T11:41:41.721Z,4.98
2023-03-15T11:44:37.454Z,4.91
2023-03-15T11:47:13.122Z,4.88
2023-03-15T11:49:47.318Z,4.93
2023-03-15T11:52:18.237Z,4.95
2023-03-15T11:54:46.992Z,4.81
2023-03-15T11:57:29.734Z,4.75
2023-03-15T12:00:32.067Z,4.72
2023-03-15T12:03:35.140Z,4.68
2023-03-15T12:06:17.569Z,4.85
2023-03-15T12:08:51.412Z,4.91
2023-03-15T12:11:21.850Z,5.02
2023-03-15T12:14:14.270Z,5.04
2023-03-15T12:16:45.946Z,4.99
2023-03-15T12:19:25.296Z,5.12
2023-03-15T12:21:58.265Z,5.08
2023-03-15T12:24:30.956Z,5.11
2023-03-15T12:27:16.252Z,5.12
2023-03-15T12:29:57.652Z,5.12
2023-03-15T12:32:25.539Z,5.11
2023-03-15T12:34:56.368Z,5.09
2023-03-15T12:37:47.494Z,4.95
2023-03-15T12:40:22.340Z,4.99
2023-03-15T12:42:49.640Z,4.98
2023-03-15T12:45:17.184Z,4.98
2023-03-15T12:48:09.939Z,4.95
2023-03-15T12:50:47.009Z,4.93
2023-03-15T12:53:36.536Z,4.92
2023-03-15T12:56:18.963Z,4.93
2023-03-15T12:58:58.272Z,4.99
2023-03-15T13:01:26.703Z,5.05
2023-03-15T13:03:59.070Z,4.93
2023-03-15T13:06:47.333Z,4.86
2023-03-15T13:09:47.468Z,4.79
2023-03-15T13:12:34.015Z,4.74
2023-03-15T13:15:24.925Z,4.57
2023-03-15T13:18:02.127Z,4.65
2023-03-15T13:20:42.652Z,4.72
2023-03-15T13:23:26.327Z,4.61
2023-03-15T13:26:53.448Z,4.67
2023-03-15T13:29:32.258Z,4.58
2023-03-15T13:32:08.792Z,4.50
2023-03-15T13:34:36.565Z,4.43
2023-03-15T13:37:04.218Z,4.32
2023-03-15T13:39:34.877Z,4.26
2023-03-15T13:42:20.843Z,4.30
2023-03-15T13:44:48.222Z,4.26
2023-03-15T13:47:24.493Z,4.16
2023-03-15T13:49:56.451Z,4.13
2023-03-15T13:52:24.060Z,4.10
2023-03-15T13:54:54.346Z,4.03
2023-03-15T13:57:23.846Z,4.00
2023-03-15T14:00:00.570Z,3.98
2023-03-15T14:02:43.238Z,4.09
2023-03-15T14:05:27.210Z,4.10
2023-03-15T14:08:15.214Z,4.05
2023-03-15T14:10:44.000Z,4.13
2023-03-15T14:13:28.084Z,4.14
2023-03-15T14:15:58.041Z,4.13
2023-03-15T14:18:32.477Z,4.14
2023-03-15T14:21:08.249Z,4.23
2023-03-15T14:23:42.220Z,4.30
2023-03-15T14:26:24.185Z,4.26
2023-03-15T14:29:02.413Z,4.16
2023-03-15T14:31:35.585Z,4.09
2023-03-15T14:34:43.615Z,4.07
2023-03-15T14:37:36.974Z,3.88
2023-03-15T14:40:28.806Z,3.79
2023-03-15T14:42:56.412Z,3.74
2023-03-15T14:45:23.977Z,3.71
2023-03-15T14:47:57.655Z,3.61
2023-03-15T14:50:33.437Z,3.57
2023-03-15T14:53:02.075Z,3.57
2023-03-15T14:55:34.954Z,3.55
2023-03-15T14:58:13.973Z,3.45
2023-03-15T15:00:44.355Z,3.40
2023-03-15T15:03:22.296Z,3.37
2023-03-15T15:05:50.050Z,3.38
2023-03-15T15:08:22.432Z,3.30
2023-03-15T15:10:52.998Z,3.27
2023-03-15T15:13:24.393Z,3.19
2023-03-15T15:15:55.951Z,3.19
2023-03-15T15:18:28.130Z,3.07
2023-03-15T15:20:59.763Z,3.03
2023-03-15T15:23:54.954Z,3.00
2023-03-15T15:26:27.969Z,2.93
2023-03-15T15:28:56.652Z,2.91
2023-03-15T15:31:25.972Z,2.86
2023-03-15T15:33:55.368Z,2.86
2023-03-15T15:36:32.425Z,2.79
2023-03-15T15:39:06.687Z,2.78
2023-03-15T15:41:35.476Z,2.74
2023-03-15T15:44:02.927Z,2.68
2023-03-15T15:46:30.447Z,2.65
2023-03-15T15:48:58.825Z,2.61
2023-03-15T15:51:31.240Z,2.62
2023-03-15T15:54:01.607Z,2.59
2023-03-15T15:56:39.829Z,2.55
2023-03-15T15:59:14.949Z,2.51
2023-03-15T16:01:59.032Z,2.46
2023-03-15T16:04:29.233Z,2.44
2023-03-15T16:07:02.358Z,2.42
2023-03-15T16:09:35.782Z,2.37
2023-03-15T16:12:14.761Z,2.34
2023-03-15T16:14:43.014Z,2.38
2023-03-15T16:17:29.667Z,2.35
2023-03-15T16:19:57.127Z,2.31
2023-03-15T16:22:26.695Z,2.26
2023-03-15T16:24:57.894Z,2.21
2023-03-15T16:27:27.933Z,2.17
2023-03-15T16:29:56.001Z,2.11
2023-03-15T16:32:41.012Z,2.07
2023-03-15T16:35:16.433Z,1.99
2023-03-15T16:37:45.795Z,1.96
2023-03-15T16:40:24.108Z,1.99
2023-03-15T16:42:51.657Z,1.86
2023-03-15T16:45:19.830Z,1.82
2023-03-15T16:47:48.508Z,1.76
2023-03-15T16:50:17.014Z,1.80
2023-03-15T16:52:46.902Z,1.78
2023-03-15T16:55:19.095Z,1.79
2023-03-15T16:57:46.673Z,1.80
2023-03-15T17:00:18.657Z,1.72
2023-03-15T17:02:54.854Z,1.75
2023-03-15T17:05:24.295Z,1.72
2023-03-15T17:07:54.098Z,1.75
2023-03-15T17:10:25.924Z,1.76
2023-03-15T17:12:59.896Z,1.75
2023-03-15T17:15:29.372Z,1.78
2023-03-15T17:17:57.813Z,1.78
2023-03-15T17:20:27.275Z,1.78
2023-03-15T17:23:00.935Z,1.78
2023-03-15T17:25:30.192Z,1.79
2023-03-15T17:27:57.889Z,1.80
2023-03-15T17:30:32.541Z,1.83
2023-03-15T17:33:01.025Z,1.86
2023-03-15T17:35:33.109Z,1.85
2023-03-15T17:38:02.912Z,1.83
2023-03-15T17:40:34.654Z,1.86
2023-03-15T17:43:04.069Z,1.86
2023-03-15T17:45:34.667Z,1.87
2023-03-15T17:48:02.691Z,1.89
2023-03-15T17:50:33.318Z,1.90
2023-03-15T17:53:05.528Z,1.95
2023-03-15T17:55:36.383Z,1.92
2023-03-15T17:58:12.270Z,1.97
2023-03-15T18:00:40.226Z,1.99
2023-03-15T18:03:10.664Z,1.97
2023-03-15T18:05:38.141Z,1.99
2023-03-15T18:08:05.586Z,1.97
2023-03-15T18:10:41.461Z,1.96
2023-03-15T18:13:14.764Z,1.95
2023-03-15T18:15:42.148Z,1.90
2023-03-15T18:18:09.657Z,1.92
2023-03-15T18:20:37.090Z,1.89
2023-03-15T18:23:05.113Z,1.89
2023-03-15T18:25:35.026Z,1.85
2023-03-15T18:28:02.640Z,1.85
2023-03-15T18:30:31.999Z,1.82
2023-03-15T18:33:00.014Z,1.83
2023-03-15T18:35:32.567Z,1.76
2023-03-15T18:38:00.616Z,1.72
2023-03-15T18:40:31.042Z,1.69
2023-03-15T18:43:00.336Z,1.66
2023-03-15T18:45:32.943Z,1.68
2023-03-15T18:48:00.912Z,1.68
2023-03-15T18:50:29.681Z,1.70
2023-03-15T18:52:58.167Z,1.69
2023-03-15T18:55:26.798Z,1.69
2023-03-15T18:57:55.416Z,1.66
2023-03-15T19:00:29.602Z,1.66
2023-03-15T19:03:02.006Z,1.65
2023-03-15T19:05:32.438Z,1.69
2023-03-15T19:07:59.903Z,1.69
2023-03-15T19:10:27.532Z,1.73
2023-03-15T19:12:55.009Z,1.72
2023-03-15T19:15:23.443Z,1.75
2023-03-15T19:17:56.252Z,1.70
2023-03-15T19:20:24.533Z,1.68
2023-03-15T19:22:52.997Z,1.69
2023-03-15T19:25:21.216Z,1.68
2023-03-15T19:27:49.131Z,1.68
2023-03-15T19:30:21.011Z,1.66
2023-03-15T19:32:50.527Z,1.65
2023-03-15T19:35:21.105Z,1.63
2023-03-15T19:37:49.972Z,1.63
2023-03-15T19:40:19.312Z,1.66
2023-03-15T19:42:50.154Z,1.63
2023-03-15T19:45:19.216Z,1.63
2023-03-15T19:47:47.275Z,1.65
2023-03-15T19:50:16.516Z,1.63
2023-03-15T19:52:47.479Z,1.69
2023-03-15T19:55:19.350Z,1.70
2023-03-15T19:57:48.534Z,1.73
2023-03-15T20:00:18.910Z,1.73
2023-03-15T20:02:47.037Z,1.78
2023-03-15T20:05:19.894Z,1.78
2023-03-15T20:07:51.721Z,1.80
2023-03-15T20:10:20.384Z,1.82
2023-03-15T20:12:48.551Z,1.80
2023-03-15T20:15:19.084Z,1.75
2023-03-15T20:17:46.581Z,1.78
2023-03-15T20:20:14.854Z,1.70
2023-03-15T20:22:45.004Z,1.70
2023-03-15T20:25:16.021Z,1.70
2023-03-15T20:27:43.622Z,1.69
2023-03-15T20:30:15.060Z,1.65
2023-03-15T20:32:43.079Z,1.69
2023-03-15T20:35:12.148Z,1.68
2023-03-15T20:37:41.698Z,1.65
2023-03-15T20:40:13.097Z,1.60
2023-03-15T20:42:42.250Z,1.54
2023-03-15T20:45:12.377Z,1.52
2023-03-15T20:47:41.319Z,1.52
2023-03-15T20:50:13.344Z,1.48
2023-03-15T20:52:42.625Z,1.49
2023-03-15T20:55:12.272Z,1.47
2023-03-15T20:57:42.689Z,1.44
2023-03-15T21:00:16.762Z,1.47
2023-03-15T21:02:46.654Z,1.44
2023-03-15T21:05:14.373Z,1.35
2023-03-15T21:07:42.796Z,1.35
2023-03-15T21:10:13.698Z,1.30
2023-03-15T21:12:41.439Z,1.26
2023-03-15T21:15:09.142Z,1.18
2023-03-15T21:17:36.512Z,1.21
2023-03-15T21:20:07.222Z,1.17
2023-03-15T21:22:34.586Z,1.14
2023-03-15T21:25:02.105Z,1.11
2023-03-15T21:27:29.802Z,1.13
2023-03-15T21:29:57.173Z,1.10
2023-03-15T21:32:25.077Z,1.11
2023-03-15T21:34:52.713Z,1.13
2023-03-15T21:37:20.133Z,1.16
2023-03-15T21:39:47.481Z,1.13
2023-03-15T21:42:14.862Z,1.14
2023-03-15T21:44:42.328Z,1.13
2023-03-15T21:47:10.227Z,1.10
2023-03-15T21:49:37.653Z,1.13
2023-03-15T21:52:05.032Z,1.08
2023-03-15T21:54:32.376Z,1.05
2023-03-15T21:56:59.706Z,1.07
2023-03-15T21:59:28.038Z,1.05
2023-03-15T22:01:57.303Z,1.05
2023-03-15T22:04:25.912Z,1.04
2023-03-15T22:06:53.547Z,1.07
2023-03-15T22:09:23.475Z,1.04
2023-03-15T22:11:51.212Z,1.04
2023-03-15T22:14:18.665Z,1.01
2023-03-15T22:16:46.103Z,1.03
2023-03-15T22:19:14.525Z,1.05
2023-03-15T22:21:42.267Z,1.04
2023-03-15T22:24:10.708Z,1.05
2023-03-15T22:26:38.061Z,1.14
2023-03-15T22:29:05.506Z,1.11
2023-03-15T22:31:32.892Z,1.14
2023-03-15T22:34:00.585Z,1.17
2023-03-15T22:36:28.552Z,1.21
2023-03-15T22:38:55.977Z,1.27
2023-03-15T22:41:24.093Z,1.34
2023-03-15T22:43:54.859Z,1.38
2023-03-15T22:46:22.297Z,1.45
2023-03-15T22:48:49.677Z,1.55
2023-03-15T22:51:17.741Z,1.62
2023-03-15T22:53:45.121Z,1.66
2023-03-15T22:56:12.716Z,1.72
2023-03-15T22:58:40.370Z,1.75
2023-03-15T23:01:07.921Z,1.79
2023-03-15T23:03:35.605Z,1.82
2023-03-15T23:06:03.098Z,1.86
2023-03-15T23:08:30.637Z,1.86
2023-03-15T23:10:58.583Z,1.89
2023-03-15T23:13:26.116Z,1.95
2023-03-15T23:15:54.390Z,1.93
2023-03-15T23:18:22.305Z,1.95
2023-03-15T23:20:49.850Z,1.96
2023-03-15T23:23:17.521Z,1.96
2023-03-15T23:25:45.976Z,1.92
2023-03-15T23:28:17.048Z,1.92
2023-03-15T23:30:45.688Z,1.86
2023-03-15T23:33:13.525Z,1.87
2023-03-15T23:35:42.084Z,1.85
2023-03-15T23:38:09.503Z,1.87
2023-03-15T23:40:36.853Z,1.83
2023-03-15T23:43:04.348Z,1.83
2023-03-15T23:45:31.872Z,1.79
2023-03-15T23:47:59.247Z,1.79
2023-03-15T23:50:27.111Z,1.80
2023-03-15T23:52:56.241Z,1.78
2023-03-15T23:55:24.123Z,1.78
2023-03-15T23:57:51.525Z,1.75
